Time;durP1;ratioP1;P1;durP2;ratioP2;P2;SDS_P1;SDS_P2;PMS_P1;PMS_P2;Temp;Humidity;BMP_temperature;BMP_pressure;BME280_temperature;BME280_humidity;BME280_pressure;Samples;Min_cycle;Max_cycle;Signal;HPM_P1;HPM_P2
2023/11/11 00:00:44;;;;;;;0.10;0.10;;;;;;;33.46;24.83;98569.22;7394682;19;20015;-59
2023/11/11 00:03:10;;;;;;;0.20;0.20;;;;;;;32.96;24.78;98556.53;7398471;19;20017;-58
2023/11/11 00:05:36;;;;;;;0.40;0.40;;;;;;;32.96;24.91;98552.88;7395253;19;20022;-58
2023/11/11 00:08:03;;;;;;;0.55;0.55;;;;;;;32.67;24.59;98551.06;7394937;19;20015;-58
2023/11/11 00:10:29;;;;;;;0.20;0.20;;;;;;;32.37;25.30;98559.25;7394957;19;20015;-58
2023/11/11 00:12:55;;;;;;;1.80;0.40;;;;;;;32.82;24.49;98556.72;7397244;19;20040;-58
2023/11/11 00:15:21;;;;;;;0.10;0.10;;;;;;;33.04;24.57;98559.72;7394053;19;20011;-58
2023/11/11 00:17:47;;;;;;;0.43;0.38;;;;;;;32.99;24.96;98568.84;7392436;19;20010;-58
2023/11/11 00:20:13;;;;;;;1.48;1.08;;;;;;;32.58;25.25;98567.31;7392930;19;20018;-59
2023/11/11 00:22:43;;;;;;;0.30;0.30;;;;;;;32.59;25.37;98568.06;7397621;19;20019;-59
2023/11/11 00:25:11;;;;;;;2.08;0.32;;;;;;;24.72;30.96;98584.97;7398959;19;20451;-59
2023/11/11 00:27:41;;;;;;;0.73;0.50;;;;;;;33.01;25.32;98574.75;7398361;19;20454;-59
2023/11/11 00:30:11;;;;;;;0.10;0.10;;;;;;;35.91;24.10;98563.91;7393513;19;20015;-58
2023/11/11 00:32:37;;;;;;;0.25;0.17;;;;;;;36.47;23.38;98576.94;7392065;19;20459;-58
2023/11/11 00:35:07;;;;;;;5.25;0.40;;;;;;;35.81;24.15;98567.25;7394410;19;20087;-58
2023/11/11 00:37:34;;;;;;;0.10;0.10;;;;;;;35.02;24.02;98573.00;7396645;19;20018;-58
2023/11/11 00:40:01;;;;;;;0.30;0.30;;;;;;;37.06;23.00;98576.84;7394891;19;20376;-58
2023/11/11 00:42:27;;;;;;;0.10;0.10;;;;;;;25.54;29.95;98585.06;7393564;19;20011;-58
2023/11/11 00:44:53;;;;;;;0.47;0.40;;;;;;;35.65;23.77;98576.25;7394344;19;20002;-58
2023/11/11 00:47:19;;;;;;;0.20;0.20;;;;;;;15.31;48.07;98612.53;7393538;19;20021;-58
2023/11/11 00:49:49;;;;;;;0.30;0.30;;;;;;;12.51;80.59;98624.72;7397285;19;20014;-58
2023/11/11 00:52:16;;;;;;;0.20;0.20;;;;;;;11.32;99.37;98618.66;7393751;19;20013;-58
2023/11/11 00:54:42;;;;;;;0.10;0.10;;;;;;;16.83;69.74;98607.50;7393326;19;20031;-58
2023/11/11 00:57:09;;;;;;;0.10;0.10;;;;;;;34.54;29.59;98571.47;7391564;19;20006;-58
2023/11/11 00:59:35;;;;;;;0.55;0.20;;;;;;;18.73;45.67;98607.28;7396418;19;20438;-58
2023/11/11 01:02:01;;;;;;;0.10;0.10;;;;;;;13.90;77.52;98615.75;7397113;19;20030;-58
2023/11/11 01:04:28;;;;;;;0.20;0.20;;;;;;;23.58;41.21;98606.44;7393748;19;20010;-58
2023/11/11 01:06:54;;;;;;;0.10;0.10;;;;;;;34.52;29.53;98582.97;7393914;19;20471;-58
2023/11/11 01:09:21;;;;;;;0.13;0.13;;;;;;;38.04;24.59;98579.50;7392780;19;20014;-58
2023/11/11 01:11:47;;;;;;;0.10;0.10;;;;;;;38.83;23.64;98585.22;7392197;19;20015;-58
2023/11/11 01:14:14;;;;;;;0.95;0.57;;;;;;;19.74;40.32;98616.66;7397878;19;20011;-58
2023/11/11 01:16:40;;;;;;;0.50;0.10;;;;;;;12.70;83.87;98639.56;7391639;19;20010;-58
2023/11/11 01:19:06;;;;;;;0.20;0.20;;;;;;;13.30;79.96;98643.88;7394531;19;20014;-58
2023/11/11 01:21:33;;;;;;;0.47;0.40;;;;;;;14.85;78.33;98639.09;7394633;19;20011;-58
2023/11/11 01:24:00;;;;;;;0.30;0.30;;;;;;;19.10;68.29;98631.94;7395655;19;20340;-58
2023/11/11 01:26:26;;;;;;;0.30;0.30;;;;;;;15.13;96.01;98636.56;7393678;19;20007;-58
2023/11/11 01:28:53;;;;;;;0.40;0.40;;;;;;;19.37;60.55;98644.41;7393923;19;20035;-58
2023/11/11 01:31:19;;;;;;;0.10;0.10;;;;;;;9.34;100.00;98662.28;7392337;19;20018;-58
2023/11/11 01:33:45;;;;;;;1.05;0.45;;;;;;;8.61;100.00;98663.00;7401592;19;20014;-58
2023/11/11 01:36:11;;;;;;;0.10;0.10;;;;;;;8.36;100.00;98663.75;7398674;19;20007;-58
2023/11/11 01:38:37;;;;;;;0.52;0.50;;;;;;;7.99;100.00;98658.03;7398381;19;20010;-58
2023/11/11 01:41:04;;;;;;;0.10;0.10;;;;;;;7.29;100.00;98653.88;7399997;19;20019;-58
2023/11/11 01:43:31;;;;;;;0.40;0.25;;;;;;;7.24;100.00;98660.88;7402468;19;20023;-58
2023/11/11 01:46:01;;;;;;;0.50;0.45;;;;;;;6.73;100.00;98663.34;7399165;19;20070;-58
2023/11/11 01:48:30;;;;;;;0.22;0.22;;;;;;;7.55;100.00;98674.91;7400224;19;20007;-58
2023/11/11 01:50:56;;;;;;;0.10;0.10;;;;;;;7.30;100.00;98680.31;7400913;19;20010;-58
2023/11/11 01:53:24;;;;;;;0.20;0.20;;;;;;;7.15;100.00;98682.34;7403025;19;20014;-58
2023/11/11 01:55:51;;;;;;;0.20;0.20;;;;;;;7.16;100.00;98684.66;7399478;19;20027;-57
2023/11/11 01:58:19;;;;;;;0.10;0.10;;;;;;;8.28;100.00;98671.75;7401998;19;20015;-57
2023/11/11 02:00:46;;;;;;;0.10;0.10;;;;;;;7.75;100.00;98678.94;7397968;19;20006;-57
2023/11/11 02:03:14;;;;;;;0.82;0.32;;;;;;;8.73;100.00;98689.59;7399721;19;20025;-57
2023/11/11 02:05:42;;;;;;;0.10;0.10;;;;;;;7.16;100.00;98681.91;7399086;19;20014;-57
2023/11/11 02:08:09;;;;;;;0.40;0.40;;;;;;;7.40;100.00;98676.97;7397745;19;20017;-57
2023/11/11 02:10:37;;;;;;;0.10;0.10;;;;;;;6.56;100.00;98684.44;7396859;19;20453;-57
2023/11/11 02:13:03;;;;;;;0.35;0.35;;;;;;;8.11;100.00;98694.97;7400897;19;20025;-58
2023/11/11 02:15:29;;;;;;;4.70;1.55;;;;;;;15.29;100.00;98681.69;7398329;19;20459;-58
2023/11/11 02:18:05;;;;;;;0.30;0.30;;;;;;;7.52;100.00;98697.25;7399103;19;20482;-57
2023/11/11 02:20:33;;;;;;;0.30;0.30;;;;;;;7.77;100.00;98706.91;7396707;19;20007;-58
2023/11/11 02:23:01;;;;;;;0.75;0.28;;;;;;;8.36;100.00;98703.34;7400450;19;20821;-57
2023/11/11 02:25:27;;;;;;;0.10;0.10;;;;;;;10.00;100.00;98691.69;7400585;19;20126;-58
2023/11/11 02:27:54;;;;;;;0.70;0.70;;;;;;;28.14;42.87;98664.50;7397742;19;20017;-58
2023/11/11 02:30:20;;;;;;;0.15;0.15;;;;;;;31.19;34.76;98667.81;7397135;19;20014;-58
2023/11/11 02:32:46;;;;;;;0.20;0.20;;;;;;;33.62;30.59;98668.00;7399964;19;20458;-58
2023/11/11 02:35:13;;;;;;;0.17;0.17;;;;;;;34.13;28.97;98677.06;7397792;19;20011;-57
2023/11/11 02:37:39;;;;;;;0.20;0.20;;;;;;;34.24;28.45;98676.00;7398841;19;20014;-58
2023/11/11 02:40:08;;;;;;;0.10;0.10;;;;;;;20.35;48.70;98700.75;7401923;19;20013;-58
2023/11/11 02:42:35;;;;;;;0.20;0.20;;;;;;;10.19;100.00;98726.94;7398903;19;20094;-58
2023/11/11 02:45:01;;;;;;;0.30;0.30;;;;;;;8.00;100.00;98733.66;7396212;19;20523;-57
2023/11/11 02:47:27;;;;;;;0.40;0.35;;;;;;;8.14;100.00;98732.84;7398111;19;20014;-57
2023/11/11 02:49:54;;;;;;;2.88;1.05;;;;;;;10.49;100.00;98722.47;7397101;19;20003;-57
2023/11/11 02:52:20;;;;;;;0.15;0.15;;;;;;;7.98;100.00;98720.28;7396138;19;20356;-57
2023/11/11 02:54:46;;;;;;;0.10;0.10;;;;;;;7.54;100.00;98719.69;7397216;19;20014;-57
2023/11/11 02:57:12;;;;;;;2.28;0.32;;;;;;;18.63;100.00;98693.72;7393974;19;20601;-57
2023/11/11 02:59:42;;;;;;;0.10;0.10;;;;;;;12.02;100.00;98708.22;7399572;19;20014;-57
2023/11/11 03:02:11;;;;;;;0.10;0.10;;;;;;;8.12;100.00;98716.66;7396394;19;20018;-58
2023/11/11 03:04:38;;;;;;;0.10;0.10;;;;;;;8.05;100.00;98719.13;7397267;19;20033;-57
2023/11/11 03:07:05;;;;;;;0.30;0.30;;;;;;;8.05;100.00;98713.56;7397703;19;20140;-57
2023/11/11 03:09:32;;;;;;;0.10;0.10;;;;;;;7.55;100.00;98705.38;7397466;19;20014;-57
2023/11/11 03:11:59;;;;;;;0.17;0.17;;;;;;;7.38;100.00;98712.69;7395374;19;20376;-57
2023/11/11 03:14:25;;;;;;;0.45;0.45;;;;;;;7.58;100.00;98721.03;7401153;19;20129;-57
2023/11/11 03:16:51;;;;;;;0.10;0.10;;;;;;;8.07;100.00;98722.16;7393995;19;20010;-58
2023/11/11 03:19:18;;;;;;;0.17;0.17;;;;;;;8.16;100.00;98724.78;7397176;19;20035;-57
2023/11/11 03:21:44;;;;;;;0.10;0.10;;;;;;;11.38;100.00;98711.38;7397244;19;20006;-57
2023/11/11 03:24:10;;;;;;;0.22;0.22;;;;;;;14.35;100.00;98717.50;7400595;19;20018;-58
2023/11/11 03:26:36;;;;;;;0.45;0.45;;;;;;;7.52;100.00;98720.19;7396157;19;20019;-57
2023/11/11 03:29:02;;;;;;;0.10;0.10;;;;;;;7.54;100.00;98726.00;7399884;19;20047;-57
2023/11/11 03:31:29;;;;;;;0.20;0.20;;;;;;;8.07;100.00;98722.16;7394284;19;20014;-58
2023/11/11 03:33:55;;;;;;;0.10;0.10;;;;;;;7.78;100.00;98728.59;7398500;19;20010;-57
2023/11/11 03:36:21;;;;;;;0.20;0.20;;;;;;;7.55;100.00;98733.09;7394989;19;20103;-58
2023/11/11 03:38:47;;;;;;;0.10;0.10;;;;;;;6.91;100.00;98740.63;7396424;19;20014;-57
2023/11/11 03:41:13;;;;;;;0.10;0.10;;;;;;;8.10;100.00;98738.56;7396985;19;20029;-57
2023/11/11 03:43:39;;;;;;;0.70;0.20;;;;;;;8.24;100.00;98736.97;7397758;19;20035;-57
2023/11/11 03:46:06;;;;;;;0.10;0.10;;;;;;;8.27;100.00;98747.16;7398748;19;20030;-57
2023/11/11 03:48:32;;;;;;;0.10;0.10;;;;;;;8.45;100.00;98744.06;7397128;19;20014;-57
2023/11/11 03:50:58;;;;;;;0.10;0.10;;;;;;;8.13;100.00;98737.63;7396389;19;20014;-57
2023/11/11 03:53:25;;;;;;;0.10;0.10;;;;;;;7.64;100.00;98741.25;7397019;19;20463;-57
2023/11/11 03:55:52;;;;;;;0.15;0.15;;;;;;;7.26;100.00;98748.97;7393309;19;20018;-57
2023/11/11 03:58:18;;;;;;;0.10;0.10;;;;;;;7.48;100.00;98754.88;7396968;19;20038;-57
2023/11/11 04:00:44;;;;;;;0.25;0.25;;;;;;;6.91;100.00;98762.00;7395013;19;20038;-57
2023/11/11 04:03:12;;;;;;;0.10;0.10;;;;;;;7.06;100.00;98755.22;7396432;19;20015;-57
2023/11/11 04:05:38;;;;;;;0.10;0.10;;;;;;;33.49;39.83;98706.44;7395621;19;20014;-57
2023/11/11 04:08:04;;;;;;;0.10;0.10;;;;;;;19.01;60.26;98739.75;7396013;19;20015;-57
2023/11/11 04:10:31;;;;;;;0.10;0.10;;;;;;;16.60;100.00;98741.47;7393976;19;20017;-57
2023/11/11 04:12:57;;;;;;;0.20;0.10;;;;;;;11.80;100.00;98746.59;7396459;19;20010;-57
2023/11/11 04:15:24;;;;;;;0.47;0.28;;;;;;;9.14;100.00;98757.59;7392349;19;20021;-57
2023/11/11 04:17:51;;;;;;;0.10;0.10;;;;;;;8.05;100.00;98755.16;7392960;19;20038;-57
2023/11/11 04:20:17;;;;;;;0.35;0.15;;;;;;;7.64;100.00;98746.78;7394720;19;20035;-57
2023/11/11 04:22:43;;;;;;;0.10;0.10;;;;;;;9.23;100.00;98759.44;7397589;19;20006;-57
2023/11/11 04:25:11;;;;;;;0.20;0.20;;;;;;;7.91;100.00;98759.50;7394059;19;20017;-57
2023/11/11 04:27:40;;;;;;;0.10;0.10;;;;;;;9.28;100.00;98772.63;7393668;19;20027;-57
2023/11/11 04:30:07;;;;;;;0.43;0.20;;;;;;;8.93;100.00;98767.25;7395092;19;20010;-57
2023/11/11 04:32:34;;;;;;;1.40;0.32;;;;;;;9.16;100.00;98774.53;7395576;19;20044;-57
2023/11/11 04:35:00;;;;;;;0.50;0.22;;;;;;;9.26;100.00;98779.91;7394506;19;20021;-57
2023/11/11 04:37:26;;;;;;;0.30;0.30;;;;;;;9.51;100.00;98776.31;7391437;19;20014;-57
2023/11/11 04:39:57;;;;;;;0.10;0.10;;;;;;;11.64;100.00;98773.19;7394990;19;20053;-57
2023/11/11 04:42:24;;;;;;;;;;;;;;;12.44;100.00;98776.03;7395338;19;20074;-57
2023/11/11 04:44:53;;;;;;;0.45;0.35;;;;;;;10.09;100.00;98766.56;7392378;19;19923;-57
2023/11/11 04:47:23;;;;;;;0.10;0.10;;;;;;;30.70;48.52;98733.00;7394593;19;20347;-57
2023/11/11 04:49:49;;;;;;;0.10;0.10;;;;;;;27.35;40.40;98741.91;7394958;19;20463;-57
2023/11/11 04:52:16;;;;;;;0.30;0.30;;;;;;;13.17;100.00;98777.16;7393703;19;20134;-57
2023/11/11 04:54:42;;;;;;;0.13;0.10;;;;;;;11.51;100.00;98786.91;7393584;19;20025;-57
2023/11/11 04:57:09;;;;;;;0.10;0.10;;;;;;;10.50;100.00;98785.22;7392238;19;20014;-57
2023/11/11 04:59:35;;;;;;;0.10;0.10;;;;;;;9.53;100.00;98784.94;7397079;19;20011;-57
2023/11/11 05:02:04;;;;;;;0.20;0.20;;;;;;;9.68;100.00;98785.56;7393479;19;20333;-57
2023/11/11 05:04:34;;;;;;;0.13;0.13;;;;;;;9.69;100.00;98789.84;7398769;19;20018;-57
2023/11/11 05:07:00;;;;;;;0.10;0.10;;;;;;;9.56;100.00;98789.50;7392767;19;20361;-57
2023/11/11 05:09:27;;;;;;;0.10;0.10;;;;;;;9.75;100.00;98796.97;7393037;19;20021;-57
2023/11/11 05:11:54;;;;;;;0.10;0.10;;;;;;;9.66;100.00;98796.38;7393368;19;20107;-57
2023/11/11 05:14:20;;;;;;;0.10;0.10;;;;;;;10.08;100.00;98803.97;7397014;19;20022;-57
2023/11/11 05:16:54;;;;;;;0.20;0.15;;;;;;;9.61;100.00;98806.22;7391626;19;20014;-57
2023/11/11 05:19:20;;;;;;;0.10;0.10;;;;;;;9.57;100.00;98802.16;7393310;19;20481;-57
2023/11/11 05:21:47;;;;;;;0.10;0.10;;;;;;;9.38;100.00;98807.28;7394153;19;20015;-57
2023/11/11 05:24:14;;;;;;;0.38;0.30;;;;;;;11.20;100.00;98804.63;7396953;19;20470;-57
2023/11/11 05:26:42;;;;;;;0.38;0.30;;;;;;;9.58;100.00;98806.44;7391838;19;20011;-57
2023/11/11 05:29:11;;;;;;;0.32;0.32;;;;;;;9.74;100.00;98800.25;7393763;19;20348;-57
2023/11/11 05:31:37;;;;;;;0.70;0.40;;;;;;;9.15;100.00;98803.56;7390761;19;20018;-57
2023/11/11 05:34:03;;;;;;;0.10;0.10;;;;;;;8.99;100.00;98798.63;7395148;19;20088;-57
2023/11/11 05:36:29;;;;;;;0.40;0.40;;;;;;;8.68;100.00;98820.75;7391319;19;20018;-57
2023/11/11 05:38:55;;;;;;;0.10;0.10;;;;;;;8.64;100.00;98822.97;7393051;19;20035;-57
2023/11/11 05:41:26;;;;;;;9.88;1.25;;;;;;;8.63;100.00;98821.44;7391672;19;20031;-57
2023/11/11 05:43:53;;;;;;;0.10;0.10;;;;;;;8.55;100.00;98828.69;7395771;19;20034;-57
2023/11/11 05:46:20;;;;;;;0.10;0.10;;;;;;;8.75;100.00;98831.41;7392306;19;20011;-57
2023/11/11 05:48:46;;;;;;;0.10;0.10;;;;;;;8.70;100.00;98823.81;7392564;19;20018;-57
2023/11/11 05:51:13;;;;;;;0.25;0.25;;;;;;;8.43;100.00;98827.00;7392722;19;20007;-57
2023/11/11 05:53:39;;;;;;;1.52;0.50;;;;;;;8.13;100.00;98834.66;7394896;19;20019;-57
2023/11/11 05:56:08;;;;;;;0.40;0.40;;;;;;;8.27;100.00;98839.41;7388867;19;20032;-57
2023/11/11 05:58:35;;;;;;;0.10;0.10;;;;;;;8.10;100.00;98849.50;7393665;19;20014;-57
2023/11/11 06:01:04;;;;;;;0.22;0.22;;;;;;;8.12;100.00;98849.03;7392719;19;20011;-57
2023/11/11 06:03:30;;;;;;;0.52;0.52;;;;;;;8.00;100.00;98850.09;7395407;19;20021;-57
2023/11/11 06:05:57;;;;;;;0.20;0.20;;;;;;;7.86;100.00;98856.47;7392989;19;20015;-57
2023/11/11 06:08:23;;;;;;;0.20;0.20;;;;;;;7.89;100.00;98849.94;7392454;19;20074;-57
2023/11/11 06:10:49;;;;;;;0.10;0.10;;;;;;;7.80;100.00;98859.13;7391916;19;20015;-57
2023/11/11 06:13:15;;;;;;;0.20;0.20;;;;;;;7.75;100.00;98853.50;7391696;19;20015;-57
2023/11/11 06:15:42;;;;;;;0.68;0.65;;;;;;;8.02;100.00;98859.47;7390785;19;20585;-57
2023/11/11 06:18:08;;;;;;;0.43;0.43;;;;;;;7.84;100.00;98865.22;7391486;19;20014;-57
2023/11/11 06:20:36;;;;;;;0.60;0.60;;;;;;;7.55;100.00;98863.28;7398798;19;20491;-57
2023/11/11 06:23:02;;;;;;;0.30;0.30;;;;;;;7.64;100.00;98868.69;7402002;19;20363;-57
2023/11/11 06:25:28;;;;;;;0.10;0.10;;;;;;;7.36;100.00;98870.25;7399143;19;20022;-57
2023/11/11 06:27:54;;;;;;;0.10;0.10;;;;;;;7.43;100.00;98875.41;7399266;19;20019;-57
2023/11/11 06:30:20;;;;;;;0.25;0.25;;;;;;;7.19;100.00;98876.75;7398035;19;20014;-57
2023/11/11 06:32:50;;;;;;;1.45;0.30;;;;;;;8.72;100.00;98874.03;7398725;19;20400;-57
2023/11/11 06:35:18;;;;;;;0.20;0.20;;;;;;;7.48;100.00;98891.38;7396657;19;20011;-57
2023/11/11 06:37:44;;;;;;;0.35;0.20;;;;;;;6.79;100.00;98893.84;7394183;19;20344;-57
2023/11/11 06:40:11;;;;;;;0.10;0.10;;;;;;;6.73;100.00;98898.53;7396953;19;20018;-57
2023/11/11 06:42:37;;;;;;;0.30;0.30;;;;;;;6.68;100.00;98890.88;7399102;19;20021;-57
2023/11/11 06:45:05;;;;;;;0.43;0.43;;;;;;;6.74;100.00;98902.81;7397019;19;20014;-57
2023/11/11 06:47:32;;;;;;;0.68;0.68;;;;;;;6.97;100.00;98904.78;7397441;19;20007;-57
2023/11/11 06:49:59;;;;;;;0.20;0.20;;;;;;;6.74;100.00;98905.56;7398058;19;20014;-57
2023/11/11 06:52:25;;;;;;;0.20;0.20;;;;;;;6.00;100.00;98904.47;7397444;19;20086;-57
2023/11/11 06:54:51;;;;;;;0.10;0.10;;;;;;;6.09;100.00;98901.69;7397995;19;20017;-57
2023/11/11 06:57:19;;;;;;;0.10;0.10;;;;;;;6.01;100.00;98906.03;7395519;19;20082;-57
2023/11/11 06:59:46;;;;;;;0.30;0.30;;;;;;;5.84;100.00;98921.44;7402576;19;20018;-57
2023/11/11 07:02:12;;;;;;;0.30;0.30;;;;;;;5.64;100.00;98923.94;7397369;19;20070;-57
2023/11/11 07:04:53;;;;;;;0.10;0.10;;;;;;;5.74;100.00;98919.16;7396640;19;20561;-58
2023/11/11 07:07:21;;;;;;;0.20;0.20;;;;;;;5.54;100.00;98930.72;7396106;19;20014;-57
2023/11/11 07:09:51;;;;;;;0.20;0.20;;;;;;;5.29;100.00;98931.06;7396940;19;20027;-57
2023/11/11 07:12:19;;;;;;;0.82;0.75;;;;;;;6.94;100.00;98922.34;7397452;19;20010;-57
2023/11/11 07:14:45;;;;;;;0.20;0.20;;;;;;;6.54;100.00;98924.78;7397303;19;20006;-57
2023/11/11 07:17:12;;;;;;;0.40;0.40;;;;;;;5.96;100.00;98925.22;7393846;19;20007;-57
2023/11/11 07:19:38;;;;;;;0.17;0.17;;;;;;;4.48;100.00;98921.53;7396487;19;20066;-57
2023/11/11 07:22:04;;;;;;;0.13;0.13;;;;;;;5.54;100.00;98927.19;7398658;19;20018;-57
2023/11/11 07:24:31;;;;;;;0.10;0.10;;;;;;;5.71;100.00;98933.88;7402198;19;20043;-57
2023/11/11 07:26:57;;;;;;;0.40;0.40;;;;;;;11.24;100.00;98924.22;7396744;19;20027;-57
2023/11/11 07:29:25;;;;;;;0.50;0.50;;;;;;;6.21;100.00;98938.63;7400304;19;20014;-57
2023/11/11 07:31:52;;;;;;;5.35;0.45;;;;;;;4.90;100.00;98948.53;7396431;19;20015;-57
2023/11/11 07:34:18;;;;;;;0.85;0.82;;;;;;;5.48;100.00;98938.06;7400955;19;20007;-57
2023/11/11 07:36:44;;;;;;;0.30;0.30;;;;;;;5.75;100.00;98940.78;7395365;19;20040;-57
2023/11/11 07:39:10;;;;;;;0.10;0.10;;;;;;;6.31;100.00;98931.81;7397057;19;20463;-57
2023/11/11 07:41:36;;;;;;;0.10;0.10;;;;;;;5.67;100.00;98939.59;7396227;19;20006;-57
2023/11/11 07:44:06;;;;;;;0.20;0.20;;;;;;;5.76;100.00;98944.31;7400211;19;20344;-57
2023/11/11 07:46:33;;;;;;;0.38;0.35;;;;;;;5.91;100.00;98937.66;7395356;19;20037;-57
2023/11/11 07:49:00;;;;;;;0.20;0.20;;;;;;;5.68;100.00;98949.38;7396557;19;20074;-57
2023/11/11 07:51:26;;;;;;;0.20;0.20;;;;;;;6.28;100.00;98946.56;7396782;19;20031;-57
2023/11/11 07:53:53;;;;;;;0.77;0.77;;;;;;;7.01;100.00;98938.59;7399656;19;20013;-58
2023/11/11 07:56:19;;;;;;;0.45;0.45;;;;;;;6.72;100.00;98949.53;7394947;19;20015;-57
2023/11/11 07:58:52;;;;;;;0.30;0.30;;;;;;;4.26;100.00;98945.69;7395617;19;20037;-57
2023/11/11 08:01:22;;;;;;;0.10;0.10;;;;;;;4.05;100.00;98941.00;7396439;19;20015;-57
2023/11/11 08:03:48;;;;;;;1.75;0.30;;;;;;;4.60;100.00;98945.47;7399471;19;20026;-57
2023/11/11 08:06:14;;;;;;;0.25;0.25;;;;;;;13.38;89.87;98930.06;7396814;19;20019;-57
2023/11/11 08:08:41;;;;;;;0.40;0.40;;;;;;;7.17;100.00;98940.91;7395939;19;20010;-57
2023/11/11 08:11:11;;;;;;;1.20;0.35;;;;;;;4.99;100.00;98956.81;7396367;19;20014;-57
2023/11/11 08:13:37;;;;;;;0.20;0.20;;;;;;;11.79;100.00;98940.31;7395254;19;20034;-57
2023/11/11 08:16:04;;;;;;;0.20;0.20;;;;;;;6.97;100.00;98943.53;7398153;19;20031;-57
2023/11/11 08:18:31;;;;;;;0.43;0.30;;;;;;;6.66;100.00;98954.19;7395663;19;20213;-57
2023/11/11 08:20:58;;;;;;;0.20;0.20;;;;;;;7.31;100.00;98948.47;7394913;19;20463;-57
2023/11/11 08:23:25;;;;;;;1.60;1.48;;;;;;;8.65;100.00;98943.84;7398342;19;20021;-57
2023/11/11 08:25:51;;;;;;;0.32;0.28;;;;;;;10.68;100.00;98948.28;7397516;19;20006;-57
2023/11/11 08:28:17;;;;;;;0.28;0.28;;;;;;;8.57;100.00;98958.63;7396425;19;20096;-57
2023/11/11 08:30:43;;;;;;;0.85;0.63;;;;;;;8.44;100.00;98941.53;7394727;19;20013;-57
2023/11/11 08:33:10;;;;;;;0.35;0.35;;;;;;;7.91;100.00;98942.47;7395331;19;20020;-57
2023/11/11 08:35:36;;;;;;;0.93;0.68;;;;;;;5.49;100.00;98956.19;7393927;19;20441;-57
2023/11/11 08:38:02;;;;;;;0.30;0.30;;;;;;;9.94;100.00;98945.50;7398093;19;20028;-57
2023/11/11 08:40:28;;;;;;;0.57;0.52;;;;;;;8.67;100.00;98952.44;7397967;19;20074;-57
2023/11/11 08:42:55;;;;;;;2.40;1.23;;;;;;;8.40;100.00;98947.28;7391540;19;20494;-57
2023/11/11 08:45:21;;;;;;;4.07;3.72;;;;;;;7.59;100.00;98955.28;7397169;19;20376;-58
2023/11/11 08:47:48;;;;;;;2.30;1.58;;;;;;;9.27;100.00;98953.69;7392427;19;20015;-57
2023/11/11 08:50:14;;;;;;;1.80;1.70;;;;;;;9.10;100.00;98956.25;7398318;19;20010;-57
2023/11/11 08:52:43;;;;;;;2.30;2.00;;;;;;;9.78;100.00;98967.59;7395880;19;20014;-57
2023/11/11 08:55:13;;;;;;;2.72;2.50;;;;;;;9.85;100.00;98964.38;7392128;19;20007;-57
2023/11/11 08:57:39;;;;;;;6.28;3.70;;;;;;;8.32;100.00;98971.88;7392379;19;20014;-58
2023/11/11 09:00:12;;;;;;;7.57;1.92;;;;;;;8.77;100.00;98967.72;7394812;19;20032;-57
2023/11/11 09:02:39;;;;;;;7.32;2.78;;;;;;;20.15;100.00;98952.56;7398032;19;20451;-57
2023/11/11 09:05:06;;;;;;;6.65;2.50;;;;;;;9.41;100.00;98969.50;7394291;19;20371;-57
2023/11/11 09:07:34;;;;;;;5.05;2.28;;;;;;;8.91;100.00;98969.69;7396958;19;20007;-57
2023/11/11 09:10:01;;;;;;;2.47;2.28;;;;;;;8.08;100.00;98968.44;7394195;19;20037;-57
2023/11/11 09:12:27;;;;;;;4.57;2.80;;;;;;;7.82;100.00;98983.38;7396132;19;20014;-57
2023/11/11 09:14:53;;;;;;;4.28;1.77;;;;;;;5.73;100.00;98995.72;7397444;19;20006;-57
2023/11/11 09:17:24;;;;;;;7.45;2.50;;;;;;;5.41;100.00;98996.38;7395445;19;20358;-57
2023/11/11 09:19:51;;;;;;;2.72;2.50;;;;;;;5.28;100.00;99006.81;7397313;19;20010;-57
2023/11/11 09:22:17;;;;;;;0.98;0.93;;;;;;;5.72;100.00;99013.50;7395201;19;20471;-57
2023/11/11 09:24:43;;;;;;;3.03;1.50;;;;;;;6.33;100.00;99006.00;7396167;19;20010;-57
2023/11/11 09:27:10;;;;;;;1.08;0.73;;;;;;;6.45;100.00;99011.34;7397352;19;20077;-57
2023/11/11 09:29:37;;;;;;;0.65;0.65;;;;;;;6.51;100.00;99015.00;7397263;19;20070;-57
2023/11/11 09:32:03;;;;;;;1.10;1.10;;;;;;;6.50;100.00;99009.91;7392659;19;20347;-57
2023/11/11 09:34:29;;;;;;;0.57;0.57;;;;;;;7.77;100.00;99007.00;7393987;19;20015;-57
2023/11/11 09:36:55;;;;;;;0.40;0.40;;;;;;;10.71;100.00;98994.66;7395841;19;20035;-57
2023/11/11 09:39:23;;;;;;;1.10;1.10;;;;;;;14.43;100.00;98992.94;7392515;19;20010;-58
2023/11/11 09:41:49;;;;;;;6.65;0.57;;;;;;;7.35;100.00;98996.13;7393768;19;20009;-57
2023/11/11 09:44:16;;;;;;;0.45;0.45;;;;;;;8.41;100.00;99012.59;7393723;19;20337;-57
2023/11/11 09:46:56;;;;;;;0.43;0.32;;;;;;;6.96;100.00;99025.03;7395653;19;20007;-57
2023/11/11 09:49:23;;;;;;;2.30;1.08;;;;;;;6.67;100.00;99024.91;7395601;19;20011;-57
2023/11/11 09:51:49;;;;;;;1.05;0.80;;;;;;;6.50;100.00;99032.81;7396526;19;20360;-57
2023/11/11 09:54:16;;;;;;;0.15;0.15;;;;;;;6.47;100.00;99030.22;7402871;19;20392;-57
2023/11/11 09:56:43;;;;;;;1.30;1.20;;;;;;;6.37;100.00;99045.31;7398704;19;20006;-57
2023/11/11 09:59:10;;;;;;;1.38;1.08;;;;;;;6.45;100.00;99043.75;7401988;19;20013;-58
2023/11/11 10:01:41;;;;;;;0.10;0.10;;;;;;;6.37;100.00;99045.31;7399670;19;20518;-58
2023/11/11 10:04:11;;;;;;;0.93;0.93;;;;;;;11.69;100.00;99037.44;7400374;19;20056;-57
2023/11/11 10:06:39;;;;;;;1.40;0.43;;;;;;;6.87;100.00;99050.00;7399665;19;20011;-57
2023/11/11 10:09:08;;;;;;;0.40;0.38;;;;;;;7.78;100.00;99043.75;7399446;19;20022;-57
2023/11/11 10:11:35;;;;;;;0.55;0.55;;;;;;;6.91;100.00;99045.03;7403186;19;20067;-57
2023/11/11 10:14:01;;;;;;;0.57;0.57;;;;;;;8.70;100.00;99043.09;7400346;19;20481;-57
2023/11/11 10:16:28;;;;;;;3.20;0.88;;;;;;;7.85;100.00;99046.16;7397940;19;20410;-57
2023/11/11 10:18:58;;;;;;;0.20;0.20;;;;;;;7.28;100.00;99051.88;7398734;19;20017;-57
2023/11/11 10:21:25;;;;;;;0.20;0.20;;;;;;;7.07;100.00;99052.19;7398586;19;20086;-57
2023/11/11 10:23:55;;;;;;;0.22;0.22;;;;;;;7.50;100.00;99051.56;7403099;19;20010;-57
2023/11/11 10:26:21;;;;;;;0.30;0.30;;;;;;;7.42;100.00;99056.72;7398257;19;20011;-57
2023/11/11 10:28:50;;;;;;;0.50;0.50;;;;;;;7.23;100.00;99065.63;7401265;19;20015;-57
2023/11/11 10:31:19;;;;;;;0.32;0.32;;;;;;;7.74;100.00;99065.34;7397629;19;20361;-57
2023/11/11 10:33:45;;;;;;;0.32;0.32;;;;;;;12.92;100.00;99055.75;7398057;19;20015;-59
2023/11/11 10:36:11;;;;;;;1.88;0.45;;;;;;;10.06;100.00;99057.63;7397839;19;20017;-56
2023/11/11 10:38:44;;;;;;;2.17;1.00;;;;;;;8.11;100.00;99058.22;7397754;19;20014;-56
2023/11/11 10:41:11;;;;;;;0.10;0.10;;;;;;;7.77;100.00;99058.88;7398572;19;20014;-56
2023/11/11 10:43:37;;;;;;;0.38;0.38;;;;;;;14.10;100.00;99047.13;7398241;19;20099;-57
2023/11/11 10:46:04;;;;;;;0.10;0.10;;;;;;;8.43;100.00;99060.06;7398285;19;20578;-57
2023/11/11 10:48:30;;;;;;;0.35;0.35;;;;;;;8.13;100.00;99064.84;7398186;19;20018;-57
2023/11/11 10:50:57;;;;;;;0.10;0.10;;;;;;;11.69;100.00;99064.56;7397838;19;20077;-57
2023/11/11 10:53:27;;;;;;;0.10;0.10;;;;;;;9.87;100.00;99067.53;7397936;19;20006;-57
2023/11/11 10:55:54;;;;;;;0.27;0.27;;;;;;;8.46;100.00;99061.88;7397218;19;20040;-57
2023/11/11 10:58:21;;;;;;;0.50;0.50;;;;;;;8.44;100.00;99067.16;7397870;19;20445;-57
2023/11/11 11:00:49;;;;;;;0.30;0.30;;;;;;;8.07;100.00;99074.28;7397708;19;20014;-57
2023/11/11 11:03:19;;;;;;;1.65;1.08;;;;;;;10.35;100.00;99074.09;7394899;19;20007;-57
2023/11/11 11:05:55;;;;;;;0.30;0.30;;;;;;;8.33;100.00;99069.72;7394357;19;20045;-57
2023/11/11 11:08:31;;;;;;;0.75;0.65;;;;;;;9.18;100.00;99070.50;7397083;19;20014;-57
2023/11/11 11:11:15;;;;;;;0.10;0.10;;;;;;;11.24;100.00;99069.16;7399385;19;20088;-57
2023/11/11 11:13:45;;;;;;;0.52;0.45;;;;;;;8.86;100.00;99064.75;7396703;19;20347;-56
2023/11/11 11:16:28;;;;;;;0.10;0.10;;;;;;;9.12;100.00;99065.63;7395556;19;20007;-57
2023/11/11 11:18:55;;;;;;;6.60;0.52;;;;;;;9.18;100.00;99068.50;7396808;19;20340;-57
2023/11/11 11:21:22;;;;;;;1.05;0.20;;;;;;;8.73;100.00;99066.31;7395507;19;20014;-57
2023/11/11 11:23:50;;;;;;;0.30;0.30;;;;;;;8.67;100.00;99069.03;7399150;19;20025;-57
2023/11/11 11:26:29;;;;;;;1.75;1.08;;;;;;;8.61;100.00;99070.94;7396259;19;20014;-57
2023/11/11 11:29:21;;;;;;;0.10;0.10;;;;;;;13.73;100.00;99065.69;7399048;19;20010;-57
2023/11/11 11:32:07;;;;;;;0.10;0.10;;;;;;;11.09;100.00;99068.53;7395390;19;20011;-57